createdAt,value
2019-01-14T00:00:28.990Z,77.50
2019-01-14T00:01:28.978Z,77.39
2019-01-14T00:02:28.978Z,77.81
2019-01-14T00:03:28.967Z,77.91
2019-01-14T00:04:28.939Z,76.98
2019-01-14T00:05:29.023Z,77.50
2019-01-14T00:06:28.923Z,76.36
2019-01-14T00:07:28.921Z,75.22
2019-01-14T00:08:28.895Z,74.81
2019-01-14T00:09:31.109Z,74.19
2019-01-14T00:10:28.910Z,75.43
2019-01-14T00:11:28.868Z,75.43
2019-01-14T00:12:28.857Z,74.74
2019-01-14T00:13:28.850Z,75.22
2019-01-14T00:14:28.829Z,75.95
2019-01-14T00:15:28.869Z,74.81
2019-01-14T00:16:28.863Z,74.29
2019-01-14T00:17:28.802Z,74.74
2019-01-14T00:18:28.784Z,74.19
2019-01-14T00:19:28.771Z,74.91
2019-01-14T00:20:28.764Z,75.88
2019-01-14T00:21:28.817Z,75.43
2019-01-14T00:22:28.754Z,75.63
2019-01-14T00:23:28.733Z,75.01
2019-01-14T00:24:28.770Z,74.91
2019-01-14T00:25:28.726Z,74.53
2019-01-14T00:26:28.721Z,75.15
2019-01-14T00:27:28.714Z,75.36
2019-01-14T00:28:28.693Z,77.22
2019-01-14T00:29:28.679Z,79.53
2019-01-14T00:30:28.665Z,80.36
2019-01-14T00:31:28.649Z,81.74
2019-01-14T00:32:28.682Z,82.26
2019-01-14T00:33:28.627Z,82.92
2019-01-14T00:34:28.608Z,84.16
2019-01-14T00:35:28.599Z,84.06
2019-01-14T00:36:28.590Z,84.06
2019-01-14T00:37:28.616Z,83.75
2019-01-14T00:38:28.573Z,81.99
2019-01-14T00:39:28.549Z,81.37
2019-01-14T00:40:28.672Z,81.78
2019-01-14T00:41:28.543Z,81.78
2019-01-14T00:42:28.537Z,80.54
2019-01-14T00:43:28.513Z,80.43
2019-01-14T00:44:28.513Z,81.26
2019-01-14T00:45:28.531Z,81.05
2019-01-14T00:46:28.479Z,79.71
2019-01-14T00:47:28.518Z,77.84
2019-01-14T00:48:28.461Z,76.81
2019-01-14T00:49:28.440Z,77.64
2019-01-14T00:50:28.434Z,77.43
2019-01-14T00:51:28.423Z,78.16
2019-01-14T00:52:28.405Z,77.64
2019-01-14T00:53:28.417Z,77.33
2019-01-14T00:54:28.388Z,77.64
2019-01-14T00:55:28.408Z,76.91
2019-01-14T00:56:28.364Z,76.91
2019-01-14T00:57:28.346Z,76.05
2019-01-14T00:58:28.340Z,75.74
2019-01-14T00:59:28.325Z,75.67
2019-01-14T01:00:28.315Z,75.43
2019-01-14T01:01:28.322Z,74.71
2019-01-14T01:02:28.297Z,75.32
2019-01-14T01:03:28.281Z,75.32
2019-01-14T01:04:28.274Z,75.02
2019-01-14T01:05:28.264Z,74.81
2019-01-14T01:06:28.299Z,75.63
2019-01-14T01:07:28.242Z,75.22
2019-01-14T01:08:28.232Z,74.71
2019-01-14T01:09:28.214Z,75.02
2019-01-14T01:10:28.208Z,74.81
2019-01-14T01:11:28.196Z,74.91
2019-01-14T01:12:28.205Z,75.32
2019-01-14T01:13:28.169Z,75.32
2019-01-14T01:14:28.195Z,75.63
2019-01-14T01:15:28.148Z,75.95
2019-01-14T01:16:28.138Z,76.98
2019-01-14T01:17:28.152Z,77.29
2019-01-14T01:18:28.133Z,77.39
2019-01-14T01:19:28.108Z,77.70
2019-01-14T01:20:28.101Z,77.60
2019-01-14T01:21:28.085Z,77.39
2019-01-14T01:22:28.069Z,78.47
2019-01-14T01:23:28.088Z,77.53
2019-01-14T01:24:28.049Z,77.64
2019-01-14T01:25:28.035Z,77.64
2019-01-14T01:26:28.028Z,77.95
2019-01-14T01:27:28.012Z,78.36
2019-01-14T01:28:28.038Z,78.47
2019-01-14T01:29:27.995Z,77.64
2019-01-14T01:30:27.985Z,77.64
2019-01-14T01:31:27.975Z,77.64
2019-01-14T01:32:27.961Z,77.43
2019-01-14T01:33:27.994Z,77.53
2019-01-14T01:34:27.962Z,77.22
2019-01-14T01:35:27.927Z,77.74
2019-01-14T01:36:31.889Z,77.22
2019-01-14T01:37:27.906Z,77.22
2019-01-14T01:38:27.889Z,77.33
2019-01-14T01:39:27.907Z,77.84
2019-01-14T01:40:27.871Z,77.64
2019-01-14T01:41:27.859Z,77.26
2019-01-14T01:42:27.846Z,77.64
2019-01-14T01:43:27.839Z,77.43
2019-01-14T01:44:27.853Z,77.22
2019-01-14T01:45:27.824Z,77.43
2019-01-14T01:46:27.856Z,78.57
2019-01-14T01:47:27.789Z,78.26
2019-01-14T01:48:27.784Z,79.09
2019-01-14T01:49:27.774Z,78.36
2019-01-14T01:50:27.764Z,78.47
2019-01-14T01:51:27.747Z,79.40
2019-01-14T01:52:27.765Z,79.19
2019-01-14T01:53:27.731Z,79.50
2019-01-14T01:54:27.715Z,78.19
2019-01-14T01:55:28.550Z,79.64
2019-01-14T01:56:27.735Z,80.36
2019-01-14T01:57:27.680Z,79.74
2019-01-14T01:58:27.670Z,80.26
2019-01-14T01:59:27.661Z,80.47
2019-01-14T02:00:27.662Z,80.16
2019-01-14T02:01:27.640Z,79.85
2019-01-14T02:02:27.641Z,80.05
2019-01-14T02:03:27.614Z,79.85
2019-01-14T02:04:27.605Z,79.33
2019-01-14T02:05:27.592Z,79.64
2019-01-14T02:06:27.582Z,79.74
2019-01-14T02:07:27.576Z,79.13
2019-01-14T02:08:27.555Z,78.40
2019-01-14T02:09:27.548Z,77.26
2019-01-14T02:10:27.536Z,78.71
2019-01-14T02:11:27.526Z,78.19
2019-01-14T02:12:27.526Z,78.30
2019-01-14T02:13:27.514Z,77.47
2019-01-14T02:14:27.498Z,77.64
2019-01-14T02:15:27.483Z,77.36
2019-01-14T02:16:27.470Z,77.15
2019-01-14T02:17:27.463Z,77.98
2019-01-14T02:18:27.488Z,77.15
2019-01-14T02:19:27.438Z,76.74
2019-01-14T02:20:27.428Z,76.64
2019-01-14T02:21:27.416Z,77.05
2019-01-14T02:22:27.404Z,77.67
2019-01-14T02:23:27.398Z,77.15
2019-01-14T02:24:27.398Z,76.64
2019-01-14T02:25:27.373Z,76.84
2019-01-14T02:26:27.356Z,77.05
2019-01-14T02:27:27.350Z,75.60
2019-01-14T02:28:27.338Z,75.71
2019-01-14T02:29:27.386Z,75.71
2019-01-14T02:30:27.318Z,75.40
2019-01-14T02:31:27.315Z,75.50
2019-01-14T02:32:27.294Z,75.60
2019-01-14T02:33:27.277Z,75.92
2019-01-14T02:34:27.272Z,76.12
2019-01-14T02:35:27.310Z,75.09
2019-01-14T02:36:27.280Z,75.19
2019-01-14T02:37:27.239Z,74.46
2019-01-14T02:38:27.223Z,74.74
2019-01-14T02:39:27.211Z,75.29
2019-01-14T02:40:27.201Z,75.57
2019-01-14T02:41:27.210Z,74.46
2019-01-14T02:42:27.186Z,74.26
2019-01-14T02:43:27.167Z,74.84
2019-01-14T02:44:27.159Z,74.46
2019-01-14T02:45:27.145Z,73.22
2019-01-14T02:46:27.171Z,74.05
2019-01-14T02:47:27.137Z,73.74
2019-01-14T02:48:27.119Z,73.94
2019-01-14T02:49:27.114Z,73.74
2019-01-14T02:50:27.099Z,74.46
2019-01-14T02:51:27.081Z,74.46
2019-01-14T02:52:27.088Z,74.05
2019-01-14T02:53:27.057Z,73.94
2019-01-14T02:54:27.053Z,74.26
2019-01-14T02:55:27.036Z,74.15
2019-01-14T02:56:27.027Z,74.26
2019-01-14T02:57:27.027Z,74.26
2019-01-14T02:58:27.005Z,74.36
2019-01-14T02:59:26.995Z,74.57
2019-01-14T03:00:26.985Z,74.57
2019-01-14T03:01:26.972Z,74.36
2019-01-14T03:02:26.984Z,74.15
2019-01-14T03:03:26.956Z,74.05
2019-01-14T03:04:26.942Z,74.26
2019-01-14T03:05:26.934Z,73.63
2019-01-14T03:06:26.913Z,73.63
2019-01-14T03:07:26.906Z,73.50
2019-01-14T03:08:26.919Z,72.71
2019-01-14T03:09:26.885Z,73.11
2019-01-14T03:10:26.866Z,74.26
2019-01-14T03:11:26.857Z,73.53
2019-01-14T03:12:33.950Z,72.71
2019-01-14T03:13:26.834Z,72.91
2019-01-14T03:14:26.827Z,73.32
2019-01-14T03:15:26.820Z,73.32
2019-01-14T03:16:26.799Z,73.63
2019-01-14T03:17:26.791Z,73.11
2019-01-14T03:18:26.792Z,73.36
2019-01-14T03:19:26.771Z,73.43
2019-01-14T03:20:26.756Z,72.74
2019-01-14T03:21:26.748Z,72.22
2019-01-14T03:22:26.733Z,72.01
2019-01-14T03:23:26.750Z,72.08
2019-01-14T03:24:26.717Z,71.25
2019-01-14T03:25:26.699Z,71.46
2019-01-14T03:26:26.692Z,71.46
2019-01-14T03:27:27.589Z,72.81
2019-01-14T03:28:26.669Z,72.29
2019-01-14T03:29:26.804Z,71.49
2019-01-14T03:30:26.651Z,71.18
2019-01-14T03:31:26.642Z,71.70
2019-01-14T03:32:26.634Z,71.70
2019-01-14T03:33:26.668Z,71.59
2019-01-14T03:34:26.607Z,71.39
2019-01-14T03:35:26.600Z,71.28
2019-01-14T03:36:26.577Z,71.49
2019-01-14T03:37:26.571Z,71.59
2019-01-14T03:38:26.564Z,71.08
2019-01-14T03:39:26.553Z,70.76
2019-01-14T03:40:26.549Z,71.59
2019-01-14T03:41:26.521Z,72.11
2019-01-14T03:42:26.516Z,72.32
2019-01-14T03:43:26.505Z,72.01
2019-01-14T03:44:26.490Z,71.91
2019-01-14T03:45:26.502Z,71.59
2019-01-14T03:46:26.465Z,72.74
2019-01-14T03:47:26.467Z,72.32
2019-01-14T03:48:26.453Z,72.22
2019-01-14T03:49:26.440Z,71.59
2019-01-14T03:50:26.428Z,71.39
2019-01-14T03:51:26.444Z,71.39
2019-01-14T03:52:26.400Z,71.28
2019-01-14T03:53:26.401Z,71.59
2019-01-14T03:54:26.379Z,72.11
2019-01-14T03:55:26.374Z,72.11
2019-01-14T03:56:26.360Z,70.97
2019-01-14T03:57:26.361Z,70.25
2019-01-14T03:58:26.337Z,69.87
2019-01-14T03:59:26.331Z,69.97
2019-01-14T04:00:26.317Z,70.39
2019-01-14T04:01:26.307Z,70.28
2019-01-14T04:02:26.307Z,70.90
2019-01-14T04:03:26.292Z,70.28
2019-01-14T04:04:26.280Z,71.11
2019-01-14T04:05:26.259Z,70.28
2019-01-14T04:06:26.257Z,71.22
2019-01-14T04:07:26.270Z,71.01
2019-01-14T04:08:26.229Z,70.39
2019-01-14T04:09:26.220Z,70.59
2019-01-14T04:10:26.204Z,69.76
2019-01-14T04:11:26.193Z,71.77
2019-01-14T04:12:26.195Z,71.14
2019-01-14T04:13:26.187Z,70.94
2019-01-14T04:14:26.164Z,70.83
2019-01-14T04:15:26.150Z,70.42
2019-01-14T04:16:26.137Z,69.97
2019-01-14T04:17:26.166Z,69.69
2019-01-14T04:18:26.126Z,69.38
2019-01-14T04:19:26.109Z,70.00
2019-01-14T04:20:26.098Z,69.17
2019-01-14T04:21:26.091Z,68.96
2019-01-14T04:22:26.084Z,69.17
2019-01-14T04:23:26.093Z,68.03
2019-01-14T04:24:26.050Z,68.03
2019-01-14T04:25:26.039Z,68.65
2019-01-14T04:26:26.033Z,68.86
2019-01-14T04:27:26.024Z,66.78
2019-01-14T04:28:26.068Z,67.30
2019-01-14T04:29:25.994Z,67.61
2019-01-14T04:30:25.985Z,68.13
2019-01-14T04:31:26.001Z,67.13
2019-01-14T04:32:25.966Z,67.34
2019-01-14T04:33:25.955Z,66.41
2019-01-14T04:34:25.962Z,66.09
2019-01-14T04:35:25.928Z,65.78
2019-01-14T04:36:25.926Z,66.51
2019-01-14T04:37:25.922Z,65.70
2019-01-14T04:38:25.898Z,65.16
2019-01-14T04:39:25.925Z,65.29
2019-01-14T04:40:25.892Z,65.70
2019-01-14T04:41:25.897Z,64.07
2019-01-14T04:42:25.857Z,63.84
2019-01-14T04:43:25.843Z,64.28
2019-01-14T04:44:25.868Z,64.25
2019-01-14T04:45:25.929Z,64.36
2019-01-14T04:46:25.811Z,65.42
2019-01-14T04:47:25.804Z,64.90
2019-01-14T04:48:27.288Z,64.39
2019-01-14T04:49:25.780Z,64.59
2019-01-14T04:50:25.798Z,64.90
2019-01-14T04:51:25.764Z,65.22
2019-01-14T04:52:25.742Z,65.01
2019-01-14T04:53:25.756Z,64.80
2019-01-14T04:54:25.721Z,65.53
2019-01-14T04:55:25.780Z,64.70
2019-01-14T04:56:25.699Z,64.49
2019-01-14T04:57:25.692Z,64.21
2019-01-14T04:58:25.686Z,64.21
2019-01-14T04:59:25.694Z,63.66
2019-01-14T05:00:25.662Z,62.96
2019-01-14T05:01:25.659Z,63.90
2019-01-14T05:02:25.640Z,63.69
2019-01-14T05:03:25.630Z,63.59
2019-01-14T05:04:25.617Z,64.00
2019-01-14T05:05:25.604Z,63.59
2019-01-14T05:06:25.630Z,63.90
2019-01-14T05:07:29.743Z,63.69
2019-01-14T05:08:25.572Z,63.79
2019-01-14T05:09:27.221Z,62.86
2019-01-14T05:10:25.545Z,62.76
2019-01-14T05:11:25.541Z,63.79
2019-01-14T05:12:25.570Z,64.00
2019-01-14T05:13:25.517Z,62.76
2019-01-14T05:14:25.511Z,62.96
2019-01-14T05:15:25.504Z,63.17
2019-01-14T05:16:25.482Z,62.76
2019-01-14T05:17:25.469Z,63.17
2019-01-14T05:18:25.488Z,62.96
2019-01-14T05:19:25.475Z,63.69
2019-01-14T05:20:25.444Z,63.90
2019-01-14T05:21:25.422Z,62.96
2019-01-14T05:22:25.418Z,62.86
2019-01-14T05:23:25.422Z,63.28
2019-01-14T05:24:25.397Z,64.31
2019-01-14T05:25:25.386Z,63.90
2019-01-14T05:26:25.372Z,62.13
2019-01-14T05:27:25.361Z,62.24
2019-01-14T05:28:25.350Z,63.07
2019-01-14T05:29:25.374Z,62.55
2019-01-14T05:30:25.326Z,63.04
2019-01-14T05:31:25.320Z,62.93
2019-01-14T05:32:25.311Z,63.48
2019-01-14T05:33:25.324Z,63.07
2019-01-14T05:34:25.320Z,62.96
2019-01-14T05:35:25.277Z,62.96
2019-01-14T05:36:25.266Z,62.83
2019-01-14T05:37:25.251Z,62.65
2019-01-14T05:38:25.241Z,63.14
2019-01-14T05:39:25.225Z,63.04
2019-01-14T05:40:25.236Z,62.93
2019-01-14T05:41:25.206Z,63.07
2019-01-14T05:42:25.195Z,62.96
2019-01-14T05:43:25.188Z,61.61
2019-01-14T05:44:25.180Z,62.73
2019-01-14T05:45:25.219Z,62.62
2019-01-14T05:46:25.152Z,62.31
2019-01-14T05:47:25.140Z,62.41
2019-01-14T05:48:25.126Z,62.62
2019-01-14T05:49:25.123Z,61.79
2019-01-14T05:50:25.122Z,62.10
2019-01-14T05:51:25.106Z,62.52
2019-01-14T05:52:25.101Z,62.52
2019-01-14T05:53:25.113Z,62.52
2019-01-14T05:54:25.095Z,61.69
2019-01-14T05:55:25.067Z,62.00
2019-01-14T05:56:25.066Z,62.52
2019-01-14T05:57:25.051Z,62.62
2019-01-14T05:58:25.021Z,62.62
2019-01-14T05:59:25.010Z,62.52
2019-01-14T06:00:24.997Z,62.21
2019-01-14T06:01:24.997Z,62.00
2019-01-14T06:02:24.975Z,62.86
2019-01-14T06:03:24.969Z,62.45
2019-01-14T06:04:24.957Z,62.02
2019-01-14T06:05:24.942Z,62.34
2019-01-14T06:06:24.991Z,62.76
2019-01-14T06:07:24.924Z,62.55
2019-01-14T06:08:24.908Z,62.86
2019-01-14T06:09:24.894Z,62.13
2019-01-14T06:10:24.884Z,63.17
2019-01-14T06:11:24.884Z,62.34
2019-01-14T06:12:24.875Z,62.86
2019-01-14T06:13:24.871Z,63.48
2019-01-14T06:14:24.842Z,63.69
2019-01-14T06:15:24.831Z,63.90
2019-01-14T06:16:24.821Z,63.69
2019-01-14T06:17:24.820Z,64.00
2019-01-14T06:18:24.811Z,64.21
2019-01-14T06:19:24.787Z,64.73
2019-01-14T06:20:25.611Z,65.25
2019-01-14T06:21:24.763Z,65.35
2019-01-14T06:22:24.754Z,65.87
2019-01-14T06:23:24.753Z,65.80
2019-01-14T06:24:24.731Z,66.42
2019-01-14T06:25:24.722Z,66.50
2019-01-14T06:26:24.734Z,66.71
2019-01-14T06:27:24.697Z,67.57
2019-01-14T06:28:24.715Z,67.88
2019-01-14T06:29:24.679Z,67.57
2019-01-14T06:30:24.681Z,66.94
2019-01-14T06:31:24.657Z,68.40
2019-01-14T06:32:24.638Z,68.08
2019-01-14T06:33:24.637Z,68.71
2019-01-14T06:34:24.620Z,68.19
2019-01-14T06:35:24.620Z,68.08
2019-01-14T06:36:24.647Z,68.40
2019-01-14T06:37:24.585Z,68.81
2019-01-14T06:38:24.577Z,68.50
2019-01-14T06:39:24.567Z,69.23
2019-01-14T06:40:24.598Z,69.33
2019-01-14T06:41:24.557Z,69.33
2019-01-14T06:42:24.529Z,69.43
2019-01-14T06:43:24.523Z,69.12
2019-01-14T06:44:24.510Z,69.33
2019-01-14T06:45:24.495Z,69.43
2019-01-14T06:46:24.498Z,68.91
2019-01-14T06:47:24.483Z,70.17
2019-01-14T06:48:24.463Z,70.27
2019-01-14T06:49:24.453Z,70.68
2019-01-14T06:50:24.445Z,71.00
2019-01-14T06:51:24.451Z,75.05
2019-01-14T06:52:24.436Z,76.75
2019-01-14T06:53:24.408Z,78.31
2019-01-14T06:54:24.398Z,77.58
2019-01-14T06:55:24.386Z,78.86
2019-01-14T06:56:24.380Z,78.86
2019-01-14T06:57:24.407Z,80.01
2019-01-14T06:58:24.357Z,80.43
2019-01-14T06:59:24.346Z,82.13
2019-01-14T07:00:24.331Z,83.80
2019-01-14T07:01:24.323Z,85.08
2019-01-14T07:02:24.313Z,86.12
2019-01-14T07:03:24.326Z,86.89
2019-01-14T07:04:24.288Z,86.99
2019-01-14T07:05:24.280Z,87.83
2019-01-14T07:06:24.264Z,88.56
2019-01-14T07:07:24.279Z,88.87
2019-01-14T07:08:24.290Z,88.24
2019-01-14T07:09:24.250Z,87.62
2019-01-14T07:10:24.225Z,88.56
2019-01-14T07:11:24.208Z,88.45
2019-01-14T07:12:24.197Z,87.73
2019-01-14T07:13:24.201Z,88.14
2019-01-14T07:14:24.189Z,86.99
2019-01-14T07:15:24.164Z,86.99
2019-01-14T07:16:24.162Z,86.37
2019-01-14T07:17:24.162Z,86.47
2019-01-14T07:18:24.145Z,87.10
2019-01-14T07:19:24.151Z,86.89
2019-01-14T07:20:24.120Z,85.22
2019-01-14T07:21:24.106Z,84.28
2019-01-14T07:22:24.100Z,82.82
2019-01-14T07:23:24.090Z,82.41
2019-01-14T07:24:24.066Z,79.91
2019-01-14T07:25:24.110Z,77.69
2019-01-14T07:26:24.048Z,79.04
2019-01-14T07:27:24.620Z,77.37
2019-01-14T07:28:24.030Z,76.65
2019-01-14T07:29:24.024Z,74.77
2019-01-14T07:30:24.046Z,71.72
2019-01-14T07:31:23.996Z,71.20
2019-01-14T07:32:23.983Z,71.30
2019-01-14T07:33:23.973Z,71.51
2019-01-14T07:34:23.968Z,69.53
2019-01-14T07:35:23.997Z,69.40
2019-01-14T07:36:23.933Z,68.46
2019-01-14T07:37:23.923Z,66.59
2019-01-14T07:38:23.918Z,66.27
2019-01-14T07:39:23.904Z,65.65
2019-01-14T07:40:23.906Z,64.72
2019-01-14T07:41:23.911Z,63.67
2019-01-14T07:42:23.877Z,65.13
2019-01-14T07:43:23.907Z,63.46
2019-01-14T07:44:23.849Z,62.95
2019-01-14T07:45:23.841Z,63.98
2019-01-14T07:46:23.857Z,63.88
2019-01-14T07:47:23.813Z,64.29
2019-01-14T07:48:23.813Z,65.03
2019-01-14T07:49:23.803Z,65.55
2019-01-14T07:50:23.817Z,65.55
2019-01-14T07:51:23.782Z,65.65
2019-01-14T07:52:23.788Z,65.34
2019-01-14T07:53:23.801Z,65.65
2019-01-14T07:54:23.741Z,65.13
2019-01-14T07:55:23.731Z,65.86
2019-01-14T07:56:23.717Z,65.96
2019-01-14T07:57:23.730Z,65.96
2019-01-14T07:58:23.691Z,66.66
2019-01-14T07:59:23.681Z,67.21
2019-01-14T08:00:23.691Z,67.21
2019-01-14T08:01:23.666Z,68.12
2019-01-14T08:02:23.680Z,67.91
2019-01-14T08:03:23.653Z,68.46
2019-01-14T08:04:23.628Z,68.46
2019-01-14T08:05:23.621Z,67.80
2019-01-14T08:06:23.612Z,68.53
2019-01-14T08:07:23.628Z,69.05
2019-01-14T08:08:23.635Z,68.84
2019-01-14T08:09:23.587Z,68.12
2019-01-14T08:10:23.565Z,67.60
2019-01-14T08:11:23.555Z,67.60
2019-01-14T08:12:23.554Z,67.08
2019-01-14T08:13:23.534Z,67.49
2019-01-14T08:14:23.548Z,67.80
2019-01-14T08:15:23.522Z,68.12
2019-01-14T08:16:23.521Z,67.88
2019-01-14T08:17:23.484Z,67.60
2019-01-14T08:18:23.477Z,67.18
2019-01-14T08:19:23.653Z,67.49
2019-01-14T08:20:23.462Z,67.70
2019-01-14T08:21:23.450Z,67.18
2019-01-14T08:22:23.434Z,67.29
2019-01-14T08:23:23.422Z,66.66
2019-01-14T08:24:23.447Z,66.03
2019-01-14T08:25:23.403Z,66.66
2019-01-14T08:26:23.395Z,66.35
2019-01-14T08:27:23.378Z,66.77
2019-01-14T08:28:23.360Z,66.77
2019-01-14T08:29:23.354Z,65.62
2019-01-14T08:30:23.415Z,65.10
2019-01-14T08:31:23.331Z,65.20
2019-01-14T08:32:23.326Z,65.41
2019-01-14T08:33:23.311Z,65.62
2019-01-14T08:34:23.300Z,65.41
2019-01-14T08:35:23.291Z,65.72
2019-01-14T08:36:23.304Z,65.83
2019-01-14T08:37:23.268Z,65.00
2019-01-14T08:38:23.257Z,64.89
2019-01-14T08:39:23.315Z,64.37
2019-01-14T08:40:23.234Z,64.89
2019-01-14T08:41:23.283Z,65.00
2019-01-14T08:42:23.215Z,64.06
2019-01-14T08:43:23.217Z,64.69
2019-01-14T08:44:23.211Z,64.06
2019-01-14T08:45:23.181Z,63.96
2019-01-14T08:46:23.170Z,62.92
2019-01-14T08:47:23.229Z,64.58
2019-01-14T08:48:23.147Z,63.64
2019-01-14T08:49:23.134Z,66.74
2019-01-14T08:50:23.155Z,63.41
2019-01-14T08:51:23.112Z,62.37
2019-01-14T08:52:23.122Z,62.99
2019-01-14T08:53:23.092Z,61.85
2019-01-14T08:54:23.081Z,61.25
2019-01-14T08:55:23.077Z,61.22
2019-01-14T08:56:23.059Z,62.57
2019-01-14T08:57:23.097Z,61.54
2019-01-14T08:58:23.030Z,62.68
2019-01-14T08:59:23.027Z,62.19
2019-01-14T09:00:23.016Z,61.54
2019-01-14T09:01:22.999Z,62.16
2019-01-14T09:02:23.015Z,61.85
2019-01-14T09:03:23.004Z,61.43
2019-01-14T09:04:24.487Z,61.43
2019-01-14T09:05:22.971Z,61.12
2019-01-14T09:06:22.946Z,61.33
2019-01-14T09:07:22.949Z,62.78
2019-01-14T09:08:28.667Z,61.36
2019-01-14T09:09:23.948Z,61.64
2019-01-14T09:10:22.914Z,61.57
2019-01-14T09:11:22.898Z,61.64
2019-01-14T09:12:22.925Z,60.60
2019-01-14T09:13:22.891Z,59.69
2019-01-14T09:14:22.860Z,60.42
2019-01-14T09:15:22.856Z,60.42
2019-01-14T09:16:22.840Z,61.15
2019-01-14T09:17:22.839Z,59.77
2019-01-14T09:18:22.864Z,59.88
2019-01-14T09:19:22.800Z,59.88
2019-01-14T09:20:22.791Z,59.25
2019-01-14T09:21:22.785Z,58.73
2019-01-14T09:22:22.778Z,59.04
2019-01-14T09:23:22.754Z,59.66
2019-01-14T09:24:22.775Z,59.88
2019-01-14T09:25:22.733Z,60.08
2019-01-14T09:26:22.731Z,59.74
2019-01-14T09:27:22.716Z,60.36
2019-01-14T09:28:22.699Z,59.84
2019-01-14T09:29:43.695Z,59.22
2019-01-14T09:30:22.683Z,58.81
2019-01-14T09:31:22.720Z,57.53
2019-01-14T09:32:22.655Z,58.03
2019-01-14T09:33:22.651Z,56.96
2019-01-14T09:34:22.655Z,56.34
2019-01-14T09:35:22.644Z,56.41
2019-01-14T09:36:22.623Z,55.25
2019-01-14T09:37:22.631Z,54.21
2019-01-14T09:38:22.597Z,54.39
2019-01-14T09:39:22.609Z,54.29
2019-01-14T09:40:22.608Z,53.93
2019-01-14T09:41:22.564Z,53.31
2019-01-14T09:42:22.553Z,52.87
2019-01-14T09:43:22.539Z,52.36
2019-01-14T09:44:22.555Z,52.23
2019-01-14T09:45:22.542Z,50.78
2019-01-14T09:46:22.513Z,49.95
2019-01-14T09:47:22.496Z,48.61
2019-01-14T09:48:22.521Z,49.13
2019-01-14T09:49:22.469Z,48.58
2019-01-14T09:50:22.493Z,47.45
2019-01-14T09:51:22.488Z,47.86
2019-01-14T09:52:22.440Z,47.24
2019-01-14T09:53:23.152Z,47.32
2019-01-14T09:54:22.427Z,47.02
2019-01-14T09:55:22.445Z,46.70
2019-01-14T09:56:22.396Z,46.89
2019-01-14T09:57:22.386Z,46.99
2019-01-14T09:58:22.369Z,46.78
2019-01-14T09:59:22.365Z,46.47
2019-01-14T10:00:22.389Z,46.27
2019-01-14T10:01:22.375Z,46.04
2019-01-14T10:02:22.363Z,44.72
2019-01-14T10:03:22.317Z,45.67
2019-01-14T10:04:22.329Z,45.56
2019-01-14T10:05:22.346Z,46.58
2019-01-14T10:06:22.320Z,46.37
2019-01-14T10:07:22.269Z,46.17
2019-01-14T10:08:22.292Z,46.04
2019-01-14T10:09:22.256Z,45.44
2019-01-14T10:10:22.239Z,45.63
2019-01-14T10:11:22.311Z,45.09
2019-01-14T10:12:22.251Z,45.40
2019-01-14T10:13:22.208Z,45.29
2019-01-14T10:14:22.246Z,44.89
2019-01-14T10:15:22.208Z,45.75
2019-01-14T10:16:22.179Z,46.17
2019-01-14T10:17:22.169Z,45.11
2019-01-14T10:18:22.154Z,45.92
2019-01-14T10:19:22.151Z,45.29
2019-01-14T10:20:22.132Z,45.87
2019-01-14T10:21:22.117Z,45.34
2019-01-14T10:22:22.113Z,45.15
2019-01-14T10:23:22.110Z,43.99
2019-01-14T10:24:22.093Z,44.80
2019-01-14T10:25:22.074Z,43.90
2019-01-14T10:26:22.063Z,44.56
2019-01-14T10:27:22.088Z,44.78
2019-01-14T10:28:22.089Z,44.96
2019-01-14T10:29:22.044Z,44.04
2019-01-14T10:30:22.017Z,44.62
2019-01-14T10:31:22.012Z,43.59
2019-01-14T10:32:21.999Z,43.03
2019-01-14T10:33:21.983Z,42.60
2019-01-14T10:34:21.994Z,42.79
2019-01-14T10:35:21.991Z,42.80
2019-01-14T10:36:21.953Z,44.41
2019-01-14T10:37:22.954Z,44.64
2019-01-14T10:38:21.941Z,44.62
2019-01-14T10:39:21.920Z,44.51
2019-01-14T10:40:21.904Z,43.77
2019-01-14T10:41:21.909Z,43.03
2019-01-14T10:42:21.884Z,43.40
2019-01-14T10:43:21.886Z,42.79
2019-01-14T10:44:21.862Z,41.10
2019-01-14T10:45:21.851Z,41.19
2019-01-14T10:46:21.865Z,41.37
2019-01-14T10:47:21.833Z,41.35
2019-01-14T10:48:21.820Z,40.33
2019-01-14T10:49:21.810Z,39.71
2019-01-14T10:50:21.802Z,39.50
2019-01-14T10:51:21.812Z,39.50
2019-01-14T10:52:21.769Z,39.83
2019-01-14T10:53:21.760Z,40.40
2019-01-14T10:54:21.747Z,41.86
2019-01-14T10:55:21.741Z,42.37
2019-01-14T10:56:21.746Z,42.40
2019-01-14T10:57:21.889Z,43.48
2019-01-14T10:58:21.708Z,43.87
2019-01-14T10:59:21.697Z,44.72
2019-01-14T11:00:21.689Z,46.47
2019-01-14T11:01:21.688Z,45.90
2019-01-14T11:02:21.661Z,46.41
2019-01-14T11:03:21.657Z,47.03
2019-01-14T11:04:21.645Z,47.55
2019-01-14T11:05:21.632Z,47.03
2019-01-14T11:06:21.702Z,46.93
2019-01-14T11:07:21.609Z,46.85
2019-01-14T11:08:21.599Z,46.85
2019-01-14T11:09:21.613Z,47.06
2019-01-14T11:10:21.579Z,46.75
2019-01-14T11:11:21.559Z,47.67
2019-01-14T11:12:21.594Z,46.95
2019-01-14T11:13:21.545Z,48.09
2019-01-14T11:14:21.528Z,46.87
2019-01-14T11:15:21.519Z,46.56
2019-01-14T11:16:21.506Z,46.97
2019-01-14T11:17:21.500Z,47.20
2019-01-14T11:18:21.509Z,47.82
2019-01-14T11:19:21.537Z,48.05
2019-01-14T11:20:21.464Z,47.64
2019-01-14T11:21:21.489Z,47.87
2019-01-14T11:22:21.455Z,48.47
2019-01-14T11:23:21.466Z,47.56
2019-01-14T11:24:21.426Z,47.64
2019-01-14T11:25:21.410Z,47.33
2019-01-14T11:26:21.411Z,46.91
2019-01-14T11:27:21.383Z,46.70
2019-01-14T11:28:21.430Z,47.20
2019-01-14T11:29:21.371Z,48.03
2019-01-14T11:30:21.352Z,47.20
2019-01-14T11:31:21.343Z,47.33
2019-01-14T11:32:21.345Z,46.79
2019-01-14T11:33:21.323Z,47.22
2019-01-14T11:34:21.393Z,47.52
2019-01-14T11:35:21.305Z,46.30
2019-01-14T11:36:21.354Z,47.10
2019-01-14T11:37:21.279Z,46.17
2019-01-14T11:38:21.275Z,46.45
2019-01-14T11:39:21.259Z,46.36
2019-01-14T11:40:21.253Z,46.45
2019-01-14T11:41:21.236Z,45.84
2019-01-14T11:42:21.217Z,45.21
2019-01-14T11:43:21.234Z,45.54
2019-01-14T11:44:21.195Z,46.79
2019-01-14T11:45:21.216Z,45.44
2019-01-14T11:46:21.173Z,45.34
2019-01-14T11:47:21.181Z,45.65
2019-01-14T11:48:21.156Z,45.44
2019-01-14T11:49:21.159Z,45.57
2019-01-14T11:50:21.130Z,45.36
2019-01-14T11:51:21.121Z,45.28
2019-01-14T11:52:21.107Z,46.91
2019-01-14T11:53:21.100Z,46.52
2019-01-14T11:54:21.089Z,47.14
2019-01-14T11:55:21.110Z,46.94
2019-01-14T11:56:21.063Z,47.04
2019-01-14T11:57:21.113Z,47.77
2019-01-14T11:58:21.041Z,46.94
2019-01-14T11:59:21.035Z,46.64
2019-01-14T12:00:21.031Z,47.06
2019-01-14T12:01:21.020Z,46.03
2019-01-14T12:02:21.003Z,46.54
2019-01-14T12:03:21.026Z,46.85
2019-01-14T12:04:20.974Z,46.88
2019-01-14T12:05:20.966Z,47.06
2019-01-14T12:06:20.959Z,47.29
2019-01-14T12:07:20.950Z,46.67
2019-01-14T12:08:21.131Z,47.08
2019-01-14T12:09:20.917Z,46.88
2019-01-14T12:10:20.913Z,46.36
2019-01-14T12:11:21.669Z,46.56
2019-01-14T12:12:20.892Z,47.29
2019-01-14T12:13:20.944Z,47.08
2019-01-14T12:14:21.637Z,46.36
2019-01-14T12:15:20.850Z,46.25
2019-01-14T12:16:20.845Z,45.32
2019-01-14T12:17:20.834Z,46.67
2019-01-14T12:18:20.816Z,46.36
2019-01-14T12:19:20.848Z,45.63
2019-01-14T12:20:20.796Z,45.63
2019-01-14T12:21:20.782Z,46.98
2019-01-14T12:22:20.814Z,45.94
2019-01-14T12:23:20.765Z,45.21
2019-01-14T12:24:20.757Z,46.56
2019-01-14T12:25:20.798Z,45.73
2019-01-14T12:26:20.729Z,45.94
2019-01-14T12:27:20.716Z,46.36
2019-01-14T12:28:20.709Z,46.46
2019-01-14T12:29:20.726Z,46.56
2019-01-14T12:30:20.688Z,46.56
2019-01-14T12:31:20.713Z,46.98
2019-01-14T12:32:20.665Z,46.88
2019-01-14T12:33:20.686Z,46.46
2019-01-14T12:34:20.638Z,46.46
2019-01-14T12:35:20.634Z,45.32
2019-01-14T12:36:20.639Z,45.94
2019-01-14T12:37:20.608Z,46.38
2019-01-14T12:38:20.633Z,46.90
2019-01-14T12:39:20.583Z,46.88
2019-01-14T12:40:20.579Z,46.46
2019-01-14T12:41:20.605Z,46.98
2019-01-14T12:42:20.550Z,46.38
2019-01-14T12:43:20.538Z,46.36
2019-01-14T12:44:20.581Z,46.80
2019-01-14T12:45:20.530Z,46.80
2019-01-14T12:46:20.506Z,46.88
2019-01-14T12:47:20.503Z,45.94
2019-01-14T12:48:20.482Z,45.73
2019-01-14T12:49:20.474Z,45.65
2019-01-14T12:50:20.519Z,45.55
2019-01-14T12:51:20.456Z,46.07
2019-01-14T12:52:20.464Z,45.76